createdAt,value
2023-02-27T04:48:21.878Z,1.10
2023-02-27T04:51:06.381Z,1.10
2023-02-27T04:54:24.196Z,1.20
2023-02-27T04:57:08.889Z,1.20
2023-02-27T05:02:50.956Z,1.40
2023-02-27T05:12:46.591Z,1.20
2023-02-27T05:15:50.812Z,1.10
2023-02-27T05:18:30.170Z,1.10
2023-02-27T05:25:20.450Z,1.00
2023-02-27T05:27:48.512Z,1.10
2023-02-27T05:31:16.603Z,1.30
2023-02-27T05:34:35.944Z,1.30
2023-02-27T05:37:31.702Z,1.30
2023-02-27T05:50:20.539Z,1.30
2023-02-27T06:02:51.303Z,1.20
2023-02-27T06:05:20.462Z,1.40
2023-02-27T06:07:50.845Z,1.40
2023-02-27T06:10:19.638Z,1.20
2023-02-27T06:12:46.892Z,1.30
2023-02-27T06:15:14.111Z,1.50
2023-02-27T06:17:43.961Z,1.40
2023-02-27T06:20:11.824Z,1.60
2023-02-27T06:22:47.322Z,1.30
2023-02-27T06:25:17.851Z,1.30
2023-02-27T06:27:44.989Z,1.20
2023-02-27T06:30:12.317Z,1.20
2023-02-27T06:32:41.907Z,1.20
2023-02-27T06:35:09.360Z,0.90
2023-02-27T06:37:36.832Z,1.10
2023-02-27T06:40:06.006Z,1.40
2023-02-27T06:42:36.333Z,1.20
2023-02-27T06:45:03.575Z,1.10
2023-02-27T06:47:32.804Z,1.30
2023-02-27T06:50:01.554Z,1.30
2023-02-27T06:52:28.629Z,1.40
2023-02-27T06:54:55.606Z,1.50
2023-02-27T06:57:33.276Z,1.60
2023-02-27T07:00:12.307Z,1.40
2023-02-27T07:02:53.105Z,1.30
2023-02-27T07:08:27.306Z,1.30
2023-02-27T07:16:39.878Z,1.20
2023-02-27T07:19:16.322Z,1.40
2023-02-27T07:22:03.919Z,1.30
2023-02-27T07:24:45.530Z,1.30
2023-02-27T07:30:32.943Z,1.20
2023-02-27T07:45:32.274Z,1.20
2023-02-27T07:57:39.536Z,1.60
2023-02-27T08:00:07.046Z,1.60
2023-02-27T08:02:34.007Z,1.50
2023-02-27T08:05:01.026Z,1.60
2023-02-27T08:07:28.050Z,1.60
2023-02-27T08:09:54.987Z,1.60
2023-02-27T08:12:22.297Z,1.70
2023-02-27T08:14:49.257Z,1.70
2023-02-27T08:17:16.286Z,1.80
2023-02-27T08:19:43.330Z,1.80
2023-02-27T08:22:10.630Z,1.80
2023-02-27T08:24:38.538Z,1.80
2023-02-27T08:27:05.510Z,1.80
2023-02-27T08:29:32.957Z,1.80
2023-02-27T08:32:00.460Z,1.80
2023-02-27T08:34:27.500Z,1.90
2023-02-27T08:36:54.619Z,1.90
2023-02-27T08:39:24.179Z,1.80
2023-02-27T08:41:52.611Z,1.70
2023-02-27T08:44:19.992Z,1.70
2023-02-27T08:46:47.006Z,1.70
2023-02-27T08:49:13.949Z,1.60
2023-02-27T08:51:40.886Z,1.50
2023-02-27T08:54:07.853Z,1.80
2023-02-27T08:56:34.795Z,1.80
2023-02-27T08:59:02.495Z,1.80
2023-02-27T09:01:34.309Z,1.90
2023-02-27T09:04:04.779Z,2.00
2023-02-27T09:06:32.237Z,1.90
2023-02-27T09:08:59.453Z,1.90
2023-02-27T09:11:26.852Z,1.80
2023-02-27T09:13:54.128Z,1.90
2023-02-27T09:16:21.764Z,1.80
2023-02-27T09:18:49.384Z,1.80
2023-02-27T09:21:17.425Z,1.80
2023-02-27T09:23:44.460Z,1.70
2023-02-27T09:26:11.406Z,1.80
2023-02-27T09:28:40.044Z,2.00
2023-02-27T09:31:07.773Z,2.00
2023-02-27T09:33:35.620Z,2.00
2023-02-27T09:36:03.340Z,2.10
2023-02-27T09:38:30.335Z,2.20
2023-02-27T09:40:59.331Z,2.20
2023-02-27T09:43:38.376Z,2.20
2023-02-27T09:46:06.250Z,2.30
2023-02-27T09:48:36.079Z,2.20
2023-02-27T09:51:03.313Z,2.10
2023-02-27T09:53:32.371Z,2.10
2023-02-27T09:56:03.374Z,2.10
2023-02-27T09:58:30.394Z,2.00
2023-02-27T10:01:02.207Z,2.10
2023-02-27T10:03:29.175Z,2.10
2023-02-27T10:05:58.925Z,2.10
2023-02-27T10:08:29.918Z,2.00
2023-02-27T10:11:02.208Z,2.00
2023-02-27T10:13:47.855Z,2.00
2023-02-27T10:16:17.032Z,1.90
2023-02-27T10:18:50.845Z,1.90
2023-02-27T10:21:20.737Z,1.90
2023-02-27T10:23:59.109Z,1.90
2023-02-27T10:26:28.586Z,2.00
2023-02-27T10:28:56.467Z,2.00
2023-02-27T10:31:29.485Z,2.00
2023-02-27T10:33:57.115Z,1.90
2023-02-27T10:36:33.762Z,2.00
2023-02-27T10:39:08.676Z,2.10
2023-02-27T10:41:36.325Z,2.10
2023-02-27T10:44:03.367Z,2.20
2023-02-27T10:46:32.214Z,2.20
2023-02-27T10:49:05.508Z,2.10
2023-02-27T10:51:34.989Z,2.10
2023-02-27T10:54:21.454Z,2.00
2023-02-27T10:56:50.523Z,2.10
2023-02-27T10:59:22.496Z,2.10
2023-02-27T11:01:51.676Z,2.10
2023-02-27T11:04:36.312Z,2.20
2023-02-27T11:07:05.130Z,2.20
2023-02-27T11:09:33.263Z,2.30
2023-02-27T11:12:10.694Z,2.30
2023-02-27T11:14:47.975Z,2.40
2023-02-27T11:17:22.878Z,2.50
2023-02-27T11:19:49.870Z,2.50
2023-02-27T11:22:18.548Z,2.40
2023-02-27T11:24:46.125Z,2.30
2023-02-27T11:27:26.418Z,2.30
2023-02-27T11:30:01.440Z,2.40
2023-02-27T11:32:42.443Z,2.40
2023-02-27T11:35:27.937Z,2.40
2023-02-27T11:37:56.294Z,2.40
2023-02-27T11:40:27.546Z,2.50
2023-02-27T11:42:57.013Z,2.40
2023-02-27T11:46:04.509Z,2.50
2023-02-27T11:48:24.604Z,2.50
2023-02-27T11:51:03.769Z,2.50
2023-02-27T11:53:30.687Z,2.60
2023-02-27T11:55:59.959Z,2.60
2023-02-27T11:58:28.418Z,2.70
2023-02-27T12:01:00.892Z,2.60
2023-02-27T12:03:33.140Z,2.60
2023-02-27T12:06:02.910Z,2.60
2023-02-27T12:08:47.956Z,2.70
2023-02-27T12:11:20.665Z,2.70
2023-02-27T12:13:51.006Z,2.70
2023-02-27T12:16:20.964Z,2.70
2023-02-27T12:18:57.348Z,2.70
2023-02-27T12:21:26.052Z,2.70
2023-02-27T12:24:02.355Z,2.60
2023-02-27T12:26:33.777Z,2.50
2023-02-27T12:29:09.540Z,2.60
2023-02-27T12:31:36.483Z,2.70
2023-02-27T12:34:03.443Z,2.70
2023-02-27T12:36:30.648Z,2.80
2023-02-27T12:38:57.715Z,2.80
2023-02-27T12:41:56.852Z,2.80
2023-02-27T12:44:24.340Z,2.70
2023-02-27T12:46:59.875Z,2.70
2023-02-27T12:49:46.398Z,2.70
2023-02-27T12:52:31.990Z,2.70
2023-02-27T12:55:06.450Z,2.80
2023-02-27T12:57:51.956Z,3.00
2023-02-27T13:00:20.168Z,3.10
2023-02-27T13:02:50.208Z,3.10
2023-02-27T13:05:35.607Z,3.10
2023-02-27T13:08:24.082Z,3.10
2023-02-27T13:10:55.728Z,3.10
2023-02-27T13:13:26.907Z,3.20
2023-02-27T13:16:02.078Z,3.30
2023-02-27T13:18:47.209Z,3.30
2023-02-27T13:21:14.159Z,3.30
2023-02-27T13:23:58.483Z,3.40
2023-02-27T13:26:28.528Z,3.50
2023-02-27T13:28:56.045Z,3.40
2023-02-27T13:31:26.055Z,3.20
2023-02-27T13:34:16.516Z,3.10
2023-02-27T13:36:48.874Z,3.00
2023-02-27T13:39:34.561Z,3.10
2023-02-27T13:42:01.509Z,3.10
2023-02-27T13:44:39.249Z,3.20
2023-02-27T13:47:24.964Z,3.10
2023-02-27T13:49:52.442Z,3.10
2023-02-27T13:52:27.844Z,3.10
2023-02-27T13:54:57.262Z,3.10
2023-02-27T13:57:27.750Z,3.10
2023-02-27T13:59:56.482Z,3.10
2023-02-27T14:02:36.651Z,3.00
2023-02-27T14:05:06.194Z,3.00
2023-02-27T14:07:47.112Z,3.00
2023-02-27T14:10:19.531Z,3.00
2023-02-27T14:12:46.877Z,3.10
2023-02-27T14:15:22.722Z,3.20
2023-02-27T14:17:52.529Z,3.20
2023-02-27T14:20:32.518Z,3.20
2023-02-27T14:23:18.474Z,3.30
2023-02-27T14:25:45.363Z,3.40
2023-02-27T14:28:18.413Z,3.30
2023-02-27T14:31:08.404Z,3.20
2023-02-27T14:33:40.340Z,3.20
2023-02-27T14:36:09.924Z,3.30
2023-02-27T14:38:38.486Z,3.10
2023-02-27T14:41:05.391Z,3.00
2023-02-27T14:43:39.689Z,3.00
2023-02-27T14:46:16.636Z,3.00
2023-02-27T14:48:43.635Z,2.90
2023-02-27T14:51:10.834Z,2.90
2023-02-27T14:53:37.826Z,2.80
2023-02-27T14:56:05.194Z,2.90
2023-02-27T14:58:32.181Z,3.10
2023-02-27T15:00:59.584Z,3.10
2023-02-27T15:03:46.863Z,3.10
2023-02-27T15:06:17.192Z,3.00
2023-02-27T15:08:46.332Z,3.00
2023-02-27T15:11:17.211Z,2.90
2023-02-27T15:13:45.291Z,2.90
2023-02-27T15:16:38.426Z,3.00
2023-02-27T15:19:14.288Z,3.00
2023-02-27T15:21:43.494Z,3.00
2023-02-27T15:24:20.980Z,3.10
2023-02-27T15:26:50.926Z,3.10
2023-02-27T15:29:21.994Z,3.20
2023-02-27T15:31:49.108Z,3.30
2023-02-27T15:34:16.142Z,3.30
2023-02-27T15:36:48.484Z,3.30
2023-02-27T15:39:17.117Z,3.30
2023-02-27T15:41:49.882Z,3.30
2023-02-27T15:44:18.132Z,3.40
2023-02-27T15:46:46.030Z,3.40
2023-02-27T15:49:17.305Z,3.40
2023-02-27T15:51:46.374Z,3.40
2023-02-27T15:54:13.383Z,3.40
2023-02-27T15:56:40.776Z,3.30
2023-02-27T15:59:07.810Z,3.30
2023-02-27T16:01:35.011Z,3.30
2023-02-27T16:04:04.135Z,3.30
2023-02-27T16:06:32.738Z,3.30
2023-02-27T16:09:04.727Z,3.40
2023-02-27T16:11:33.330Z,3.40
2023-02-27T16:14:00.330Z,3.40
2023-02-27T16:16:30.199Z,3.40
2023-02-27T16:18:58.995Z,3.40
2023-02-27T16:21:27.012Z,3.40
2023-02-27T16:23:54.118Z,3.40
2023-02-27T16:26:21.296Z,3.40
2023-02-27T16:28:51.585Z,3.40
2023-02-27T16:31:22.422Z,3.40
2023-02-27T16:33:49.517Z,3.40
2023-02-27T16:36:18.616Z,3.40
2023-02-27T16:38:45.988Z,3.30
2023-02-27T16:41:16.898Z,3.30
2023-02-27T16:43:45.072Z,3.20
2023-02-27T16:46:16.636Z,3.10
2023-02-27T16:48:43.708Z,3.10
2023-02-27T16:51:15.310Z,3.20
2023-02-27T16:53:42.212Z,3.30
2023-02-27T16:56:12.781Z,3.10
2023-02-27T16:58:39.765Z,3.10
2023-02-27T17:01:06.800Z,3.10
2023-02-27T17:03:34.033Z,3.10
2023-02-27T17:06:03.307Z,3.20
2023-02-27T17:08:30.852Z,3.20
2023-02-27T17:10:58.185Z,3.20
2023-02-27T17:13:25.267Z,3.20
2023-02-27T17:15:52.378Z,3.30
2023-02-27T17:18:19.833Z,3.20
2023-02-27T17:20:46.823Z,3.10
2023-02-27T17:23:14.510Z,3.20
2023-02-27T17:25:42.314Z,3.10
2023-02-27T17:28:09.700Z,3.20
2023-02-27T17:30:36.697Z,3.20
2023-02-27T17:33:04.314Z,3.20
2023-02-27T17:35:31.494Z,3.10
2023-02-27T17:37:59.449Z,3.10
2023-02-27T17:40:26.702Z,3.10
2023-02-27T17:42:53.695Z,3.00
2023-02-27T17:45:21.158Z,3.00
2023-02-27T17:47:48.199Z,3.10
2023-02-27T17:50:15.594Z,3.00
2023-02-27T17:52:42.571Z,2.90
2023-02-27T17:55:09.808Z,2.80
2023-02-27T17:57:37.136Z,2.70
2023-02-27T18:00:05.042Z,2.70
2023-02-27T18:02:32.341Z,2.70
2023-02-27T18:04:59.437Z,2.70
2023-02-27T18:07:26.351Z,2.80
2023-02-27T18:09:53.260Z,2.90
2023-02-27T18:12:20.213Z,2.90
2023-02-27T18:14:47.163Z,2.90
2023-02-27T18:17:14.235Z,2.90
2023-02-27T18:19:41.865Z,2.90
2023-02-27T18:22:11.215Z,2.90
2023-02-27T18:24:38.219Z,2.90
2023-02-27T18:27:05.133Z,2.80
2023-02-27T18:29:32.095Z,2.90
2023-02-27T18:31:59.127Z,3.00
2023-02-27T18:34:26.038Z,3.00
2023-02-27T18:36:53.074Z,2.90
2023-02-27T18:39:20.080Z,2.90
2023-02-27T18:41:47.529Z,2.90
2023-02-27T18:44:14.605Z,2.90
2023-02-27T18:46:41.968Z,2.80
2023-02-27T18:49:08.993Z,2.80
2023-02-27T18:51:35.925Z,2.80
2023-02-27T18:54:05.044Z,2.80
2023-02-27T18:56:32.828Z,2.90
2023-02-27T18:59:03.010Z,2.90
2023-02-27T19:01:31.646Z,3.00
2023-02-27T19:04:03.418Z,3.10
2023-02-27T19:06:34.406Z,3.10
2023-02-27T19:09:01.331Z,3.20
2023-02-27T19:11:32.908Z,3.00
2023-02-27T19:14:00.829Z,2.90
2023-02-27T19:16:28.410Z,3.00
2023-02-27T19:18:57.020Z,3.00
2023-02-27T19:21:24.345Z,3.00
2023-02-27T19:23:51.591Z,3.00
2023-02-27T19:26:18.824Z,3.00
2023-02-27T19:28:46.017Z,3.10
2023-02-27T19:31:14.288Z,3.20
2023-02-27T19:33:41.308Z,3.20
2023-02-27T19:36:09.626Z,3.10
2023-02-27T19:38:37.450Z,3.10
2023-02-27T19:41:05.525Z,3.20
2023-02-27T19:43:33.957Z,3.20
2023-02-27T19:46:04.061Z,3.30
2023-02-27T19:48:31.101Z,3.30
2023-02-27T19:51:00.970Z,3.20
2023-02-27T19:53:27.949Z,3.20
2023-02-27T19:56:01.550Z,3.20
2023-02-27T19:58:28.826Z,3.20
2023-02-27T20:00:55.957Z,3.20
2023-02-27T20:03:23.523Z,3.20
2023-02-27T20:05:51.052Z,3.10
2023-02-27T20:08:18.202Z,3.10
2023-02-27T20:10:58.440Z,3.10
2023-02-27T20:13:25.981Z,3.10
2023-02-27T20:16:12.725Z,3.10
2023-02-27T20:18:41.738Z,3.10
2023-02-27T20:21:10.258Z,3.10
2023-02-27T20:23:38.944Z,3.10
2023-02-27T20:26:38.192Z,3.00
2023-02-27T20:29:09.389Z,2.90
2023-02-27T20:31:37.437Z,2.80
2023-02-27T20:34:06.021Z,2.80
2023-02-27T20:36:34.378Z,2.70
2023-02-27T20:39:02.243Z,2.60
2023-02-27T20:41:29.944Z,2.50
2023-02-27T20:43:57.304Z,2.50
2023-02-27T20:46:26.557Z,2.60
2023-02-27T20:48:55.197Z,2.80
2023-02-27T20:51:23.303Z,2.60
2023-02-27T20:53:51.706Z,2.70
2023-02-27T20:56:20.250Z,2.70
2023-02-27T20:58:47.351Z,2.60
2023-02-27T21:01:15.681Z,2.60
2023-02-27T21:03:43.467Z,2.60
2023-02-27T21:06:11.276Z,2.60
2023-02-27T21:08:39.361Z,2.60
2023-02-27T21:11:07.539Z,2.60
2023-02-27T21:13:36.128Z,2.60
2023-02-27T21:16:04.382Z,2.60
2023-02-27T21:18:31.943Z,2.60
2023-02-27T21:21:02.590Z,2.60
2023-02-27T21:23:29.723Z,2.60
2023-02-27T21:25:56.719Z,2.60
2023-02-27T21:28:23.675Z,2.40
2023-02-27T21:30:54.690Z,2.40
2023-02-27T21:33:22.352Z,2.30
2023-02-27T21:35:49.743Z,2.30
2023-02-27T21:38:16.755Z,2.30
2023-02-27T21:40:43.783Z,2.30
2023-02-27T21:43:10.727Z,2.20
2023-02-27T21:45:41.526Z,2.30
2023-02-27T21:48:08.577Z,2.30
2023-02-27T21:50:36.533Z,2.30
2023-02-27T21:53:03.445Z,2.40
2023-02-27T21:55:30.417Z,2.50
2023-02-27T21:57:57.409Z,2.40
2023-02-27T22:00:26.541Z,2.40
2023-02-27T22:02:53.643Z,2.50
2023-02-27T22:05:20.855Z,2.50
2023-02-27T22:07:47.925Z,2.50
2023-02-27T22:10:14.939Z,2.50
2023-02-27T22:12:41.880Z,2.50
2023-02-27T22:15:09.094Z,2.40
2023-02-27T22:17:36.014Z,2.50
2023-02-27T22:20:04.305Z,2.50
2023-02-27T22:22:31.231Z,2.50
2023-02-27T22:24:58.226Z,2.40
2023-02-27T22:27:25.211Z,2.50
2023-02-27T22:29:52.337Z,2.40
2023-02-27T22:32:19.681Z,2.40
2023-02-27T22:34:46.776Z,2.50
2023-02-27T22:37:16.074Z,2.40
2023-02-27T22:39:42.991Z,2.50
2023-02-27T22:42:10.024Z,2.40
2023-02-27T22:44:37.006Z,2.40
2023-02-27T22:47:03.963Z,2.30
2023-02-27T22:49:30.900Z,2.30
2023-02-27T22:51:57.860Z,2.30
2023-02-27T22:54:24.865Z,2.40
2023-02-27T22:56:53.238Z,2.40
2023-02-27T22:59:20.559Z,2.50
2023-02-27T23:01:48.610Z,2.50
2023-02-27T23:04:19.609Z,2.60
2023-02-27T23:06:46.607Z,2.50
2023-02-27T23:09:18.344Z,2.50
2023-02-27T23:11:45.871Z,2.40
2023-02-27T23:14:13.292Z,2.50
2023-02-27T23:16:40.383Z,2.50
2023-02-27T23:19:07.448Z,2.40
2023-02-27T23:21:35.539Z,2.40
2023-02-27T23:24:12.899Z,2.40
2023-02-27T23:26:41.151Z,2.40
2023-02-27T23:29:08.508Z,2.50
2023-02-27T23:31:36.193Z,2.60
2023-02-27T23:34:05.787Z,2.60
2023-02-27T23:36:36.426Z,2.60
2023-02-27T23:39:04.133Z,2.60
2023-02-27T23:41:31.372Z,2.70
2023-02-27T23:43:58.599Z,2.70
2023-02-27T23:46:30.155Z,2.70
2023-02-27T23:48:58.249Z,2.60
2023-02-27T23:51:25.478Z,2.50
2023-02-27T23:53:52.687Z,2.50
2023-02-27T23:56:24.516Z,2.50
2023-02-27T23:58:55.394Z,2.50
